sensor_id;sensor_type;location;lat;lon;timestamp;temperature;humidity
21271;DHT22;10795;50.796;3.860;2023-03-24T00:01:16;12.90;99.90
21271;DHT22;10795;50.796;3.860;2023-03-24T00:03:42;12.80;99.90
21271;DHT22;10795;50.796;3.860;2023-03-24T00:06:16;12.80;99.90
21271;DHT22;10795;50.796;3.860;2023-03-24T00:08:46;12.90;99.90
21271;DHT22;10795;50.796;3.860;2023-03-24T00:11:13;12.90;99.90
21271;DHT22;10795;50.796;3.860;2023-03-24T00:13:40;12.80;99.90
21271;DHT22;10795;50.796;3.860;2023-03-24T00:16:09;12.80;99.90
21271;DHT22;10795;50.796;3.860;2023-03-24T00:18:41;12.80;99.90
21271;DHT22;10795;50.796;3.860;2023-03-24T00:21:07;12.90;99.90
21271;DHT22;10795;50.796;3.860;2023-03-24T00:23:34;12.80;99.90
21271;DHT22;10795;50.796;3.860;2023-03-24T00:26:05;12.90;99.90
21271;DHT22;10795;50.796;3.860;2023-03-24T00:28:38;13.00;99.90
21271;DHT22;10795;50.796;3.860;2023-03-24T00:31:05;12.90;99.90
21271;DHT22;10795;50.796;3.860;2023-03-24T00:33:34;12.90;99.90
21271;DHT22;10795;50.796;3.860;2023-03-24T00:36:06;13.00;99.90
21271;DHT22;10795;50.796;3.860;2023-03-24T00:38:34;13.00;99.90
21271;DHT22;10795;50.796;3.860;2023-03-24T00:41:01;13.10;99.90
21271;DHT22;10795;50.796;3.860;2023-03-24T00:43:30;13.10;99.90
21271;DHT22;10795;50.796;3.860;2023-03-24T00:46:00;13.00;99.90
21271;DHT22;10795;50.796;3.860;2023-03-24T00:48:34;13.00;99.90
21271;DHT22;10795;50.796;3.860;2023-03-24T00:51:06;13.00;99.90
21271;DHT22;10795;50.796;3.860;2023-03-24T00:53:33;13.00;99.90
21271;DHT22;10795;50.796;3.860;2023-03-24T00:56:00;13.10;99.90
21271;DHT22;10795;50.796;3.860;2023-03-24T00:58:29;13.10;99.90
21271;DHT22;10795;50.796;3.860;2023-03-24T01:01:25;13.10;99.90
21271;DHT22;10795;50.796;3.860;2023-03-24T01:03:54;13.00;99.90
21271;DHT22;10795;50.796;3.860;2023-03-24T01:06:22;13.10;99.90
21271;DHT22;10795;50.796;3.860;2023-03-24T01:08:56;13.10;99.90
21271;DHT22;10795;50.796;3.860;2023-03-24T01:11:25;13.10;99.90
21271;DHT22;10795;50.796;3.860;2023-03-24T01:13:53;13.30;99.90
21271;DHT22;10795;50.796;3.860;2023-03-24T01:19:01;13.30;99.90
21271;DHT22;10795;50.796;3.860;2023-03-24T01:21:30;13.20;99.90
21271;DHT22;10795;50.796;3.860;2023-03-24T01:23:59;13.20;99.90
21271;DHT22;10795;50.796;3.860;2023-03-24T01:26:27;13.20;99.90
21271;DHT22;10795;50.796;3.860;2023-03-24T01:28:53;13.20;99.90
21271;DHT22;10795;50.796;3.860;2023-03-24T01:31:19;13.20;99.90
21271;DHT22;10795;50.796;3.860;2023-03-24T01:33:47;13.20;99.90
21271;DHT22;10795;50.796;3.860;2023-03-24T01:36:13;13.10;99.90
21271;DHT22;10795;50.796;3.860;2023-03-24T01:38:40;12.90;99.90
21271;DHT22;10795;50.796;3.860;2023-03-24T01:41:06;12.80;99.90
21271;DHT22;10795;50.796;3.860;2023-03-24T01:43:34;12.70;99.90
21271;DHT22;10795;50.796;3.860;2023-03-24T01:46:20;12.50;99.90
21271;DHT22;10795;50.796;3.860;2023-03-24T01:48:54;12.50;99.90
21271;DHT22;10795;50.796;3.860;2023-03-24T01:51:39;12.30;99.90
21271;DHT22;10795;50.796;3.860;2023-03-24T01:54:25;12.30;99.90
21271;DHT22;10795;50.796;3.860;2023-03-24T01:57:02;12.30;99.90
21271;DHT22;10795;50.796;3.860;2023-03-24T01:59:35;12.00;99.90
21271;DHT22;10795;50.796;3.860;2023-03-24T02:02:11;11.80;99.90
21271;DHT22;10795;50.796;3.860;2023-03-24T02:04:51;11.80;99.90
21271;DHT22;10795;50.796;3.860;2023-03-24T02:10:14;11.70;99.90
21271;DHT22;10795;50.796;3.860;2023-03-24T02:12:42;11.60;99.90
21271;DHT22;10795;50.796;3.860;2023-03-24T02:15:14;11.40;99.90
21271;DHT22;10795;50.796;3.860;2023-03-24T02:17:55;11.20;99.90
21271;DHT22;10795;50.796;3.860;2023-03-24T02:20:42;11.30;99.90
21271;DHT22;10795;50.796;3.860;2023-03-24T02:29:34;11.30;99.90
21271;DHT22;10795;50.796;3.860;2023-03-24T02:38:08;11.20;99.90
21271;DHT22;10795;50.796;3.860;2023-03-24T02:46:47;11.10;99.90
21271;DHT22;10795;50.796;3.860;2023-03-24T02:52:38;11.20;99.90
21271;DHT22;10795;50.796;3.860;2023-03-24T02:55:24;11.00;99.90
21271;DHT22;10795;50.796;3.860;2023-03-24T02:58:18;10.90;99.90
21271;DHT22;10795;50.796;3.860;2023-03-24T03:00:59;10.80;99.90
21271;DHT22;10795;50.796;3.860;2023-03-24T03:03:52;11.00;99.90
21271;DHT22;10795;50.796;3.860;2023-03-24T03:06:27;10.90;99.90
21271;DHT22;10795;50.796;3.860;2023-03-24T03:08:59;10.80;99.90
21271;DHT22;10795;50.796;3.860;2023-03-24T03:11:28;10.80;99.90
21271;DHT22;10795;50.796;3.860;2023-03-24T03:14:09;10.70;99.90
21271;DHT22;10795;50.796;3.860;2023-03-24T03:16:57;10.90;99.90
21271;DHT22;10795;50.796;3.860;2023-03-24T03:19:33;10.80;99.90
21271;DHT22;10795;50.796;3.860;2023-03-24T03:22:05;10.80;99.90
21271;DHT22;10795;50.796;3.860;2023-03-24T03:24:40;10.70;99.90
21271;DHT22;10795;50.796;3.860;2023-03-24T03:27:23;10.70;99.90
21271;DHT22;10795;50.796;3.860;2023-03-24T03:29:59;10.70;99.90
21271;DHT22;10795;50.796;3.860;2023-03-24T03:32:38;10.80;99.90
21271;DHT22;10795;50.796;3.860;2023-03-24T03:35:17;10.80;99.90
21271;DHT22;10795;50.796;3.860;2023-03-24T03:43:42;10.80;99.90
21271;DHT22;10795;50.796;3.860;2023-03-24T03:46:29;10.70;99.90
21271;DHT22;10795;50.796;3.860;2023-03-24T03:48:58;10.60;99.90
21271;DHT22;10795;50.796;3.860;2023-03-24T03:51:31;10.60;99.90
21271;DHT22;10795;50.796;3.860;2023-03-24T03:54:02;10.60;99.90
21271;DHT22;10795;50.796;3.860;2023-03-24T03:56:34;10.50;99.90
21271;DHT22;10795;50.796;3.860;2023-03-24T04:15:44;10.40;99.90
21271;DHT22;10795;50.796;3.860;2023-03-24T04:18:57;10.40;99.90
21271;DHT22;10795;50.796;3.860;2023-03-24T04:24:41;10.40;99.90
21271;DHT22;10795;50.796;3.860;2023-03-24T04:27:24;10.40;99.90
21271;DHT22;10795;50.796;3.860;2023-03-24T04:33:12;10.30;99.90
21271;DHT22;10795;50.796;3.860;2023-03-24T04:35:56;10.20;99.90
21271;DHT22;10795;50.796;3.860;2023-03-24T04:38:49;10.20;99.90
21271;DHT22;10795;50.796;3.860;2023-03-24T04:41:29;10.20;99.90
21271;DHT22;10795;50.796;3.860;2023-03-24T04:44:17;10.10;99.90
21271;DHT22;10795;50.796;3.860;2023-03-24T04:47:11;10.20;99.90
21271;DHT22;10795;50.796;3.860;2023-03-24T04:50:00;10.00;99.90
21271;DHT22;10795;50.796;3.860;2023-03-24T04:52:44;9.90;99.90
21271;DHT22;10795;50.796;3.860;2023-03-24T04:58:33;9.90;99.90
21271;DHT22;10795;50.796;3.860;2023-03-24T05:01:18;9.90;99.90
21271;DHT22;10795;50.796;3.860;2023-03-24T05:08:43;9.80;99.90
21271;DHT22;10795;50.796;3.860;2023-03-24T05:55:44;9.80;99.90
21271;DHT22;10795;50.796;3.860;2023-03-24T05:58:30;9.90;99.90
21271;DHT22;10795;50.796;3.860;2023-03-24T06:01:08;10.10;99.90
21271;DHT22;10795;50.796;3.860;2023-03-24T06:03:38;10.20;99.90
21271;DHT22;10795;50.796;3.860;2023-03-24T06:06:09;10.00;99.90
21271;DHT22;10795;50.796;3.860;2023-03-24T06:08:42;10.00;99.90
21271;DHT22;10795;50.796;3.860;2023-03-24T06:11:11;9.90;99.90
21271;DHT22;10795;50.796;3.860;2023-03-24T06:13:49;10.00;99.90
21271;DHT22;10795;50.796;3.860;2023-03-24T06:16:28;9.90;99.90
21271;DHT22;10795;50.796;3.860;2023-03-24T06:19:01;9.80;99.90
21271;DHT22;10795;50.796;3.860;2023-03-24T06:21:47;9.90;99.90
21271;DHT22;10795;50.796;3.860;2023-03-24T06:24:19;10.00;99.90
21271;DHT22;10795;50.796;3.860;2023-03-24T06:26:48;10.20;99.90
21271;DHT22;10795;50.796;3.860;2023-03-24T06:29:16;10.10;99.90
21271;DHT22;10795;50.796;3.860;2023-03-24T06:31:43;10.10;99.90
21271;DHT22;10795;50.796;3.860;2023-03-24T06:34:09;10.10;99.90
21271;DHT22;10795;50.796;3.860;2023-03-24T06:36:38;10.10;99.90
21271;DHT22;10795;50.796;3.860;2023-03-24T06:39:08;10.30;99.90
21271;DHT22;10795;50.796;3.860;2023-03-24T06:41:35;10.20;99.90
21271;DHT22;10795;50.796;3.860;2023-03-24T06:44:07;10.20;99.90
21271;DHT22;10795;50.796;3.860;2023-03-24T06:46:33;10.30;99.90
21271;DHT22;10795;50.796;3.860;2023-03-24T06:48:59;10.40;99.90
21271;DHT22;10795;50.796;3.860;2023-03-24T06:51:28;10.60;99.90
21271;DHT22;10795;50.796;3.860;2023-03-24T06:53:54;10.50;99.90
21271;DHT22;10795;50.796;3.860;2023-03-24T06:56:23;10.60;99.90
21271;DHT22;10795;50.796;3.860;2023-03-24T06:58:56;10.50;99.90
21271;DHT22;10795;50.796;3.860;2023-03-24T07:01:30;10.70;99.90
21271;DHT22;10795;50.796;3.860;2023-03-24T10:28:56;13.60;99.90
21271;DHT22;10795;50.796;3.860;2023-03-24T10:31:31;13.90;99.90
21271;DHT22;10795;50.796;3.860;2023-03-24T10:33:58;13.60;99.90
21271;DHT22;10795;50.796;3.860;2023-03-24T10:36:25;13.60;99.90
21271;DHT22;10795;50.796;3.860;2023-03-24T10:38:52;13.90;99.90
21271;DHT22;10795;50.796;3.860;2023-03-24T10:41:23;14.20;99.90
21271;DHT22;10795;50.796;3.860;2023-03-24T10:43:51;14.20;99.90
21271;DHT22;10795;50.796;3.860;2023-03-24T10:46:21;14.50;99.90
21271;DHT22;10795;50.796;3.860;2023-03-24T10:48:49;14.50;99.90
21271;DHT22;10795;50.796;3.860;2023-03-24T10:51:22;14.50;99.90
21271;DHT22;10795;50.796;3.860;2023-03-24T10:53:50;14.30;99.90
21271;DHT22;10795;50.796;3.860;2023-03-24T10:56:42;14.90;99.90
21271;DHT22;10795;50.796;3.860;2023-03-24T10:59:23;14.70;99.90
21271;DHT22;10795;50.796;3.860;2023-03-24T11:01:56;14.60;99.90
21271;DHT22;10795;50.796;3.860;2023-03-24T11:04:23;14.40;99.90
21271;DHT22;10795;50.796;3.860;2023-03-24T11:07:13;13.90;99.90
21271;DHT22;10795;50.796;3.860;2023-03-24T11:10:18;13.70;99.90
21271;DHT22;10795;50.796;3.860;2023-03-24T11:17:43;13.70;99.90
21271;DHT22;10795;50.796;3.860;2023-03-24T11:20:32;13.60;99.90
21271;DHT22;10795;50.796;3.860;2023-03-24T11:23:33;14.00;99.90
21271;DHT22;10795;50.796;3.860;2023-03-24T11:26:14;13.80;99.90
21271;DHT22;10795;50.796;3.860;2023-03-24T11:28:44;14.10;99.90
21271;DHT22;10795;50.796;3.860;2023-03-24T11:31:12;13.90;99.90
21271;DHT22;10795;50.796;3.860;2023-03-24T11:33:59;13.60;99.90
21271;DHT22;10795;50.796;3.860;2023-03-24T11:39:17;13.90;99.90
21271;DHT22;10795;50.796;3.860;2023-03-24T11:44:43;14.60;99.90
21271;DHT22;10795;50.796;3.860;2023-03-24T11:47:29;15.00;99.90
21271;DHT22;10795;50.796;3.860;2023-03-24T11:58:00;14.50;99.90
21271;DHT22;10795;50.796;3.860;2023-03-24T12:00:36;14.40;99.90
21271;DHT22;10795;50.796;3.860;2023-03-24T12:14:00;14.50;99.90
21271;DHT22;10795;50.796;3.860;2023-03-24T12:50:55;12.50;99.90
21271;DHT22;10795;50.796;3.860;2023-03-24T12:56:16;13.60;99.90
21271;DHT22;10795;50.796;3.860;2023-03-24T12:58:53;13.80;99.90
21271;DHT22;10795;50.796;3.860;2023-03-24T13:01:27;14.10;99.90
21271;DHT22;10795;50.796;3.860;2023-03-24T13:12:45;14.70;99.90
21271;DHT22;10795;50.796;3.860;2023-03-24T13:18:27;14.70;99.90
21271;DHT22;10795;50.796;3.860;2023-03-24T13:21:07;14.50;99.90
21271;DHT22;10795;50.796;3.860;2023-03-24T13:26:39;14.20;99.90
21271;DHT22;10795;50.796;3.860;2023-03-24T13:32:02;13.60;99.90
21271;DHT22;10795;50.796;3.860;2023-03-24T13:34:39;13.70;99.90
21271;DHT22;10795;50.796;3.860;2023-03-24T13:37:13;13.10;99.90
21271;DHT22;10795;50.796;3.860;2023-03-24T13:39:42;12.40;99.90
21271;DHT22;10795;50.796;3.860;2023-03-24T13:42:31;12.00;99.90
21271;DHT22;10795;50.796;3.860;2023-03-24T13:45:04;12.00;99.90
21271;DHT22;10795;50.796;3.860;2023-03-24T13:53:17;12.70;99.90
21271;DHT22;10795;50.796;3.860;2023-03-24T13:55:50;12.80;99.90
21271;DHT22;10795;50.796;3.860;2023-03-24T13:58:22;13.00;99.90
21271;DHT22;10795;50.796;3.860;2023-03-24T14:03:39;13.10;99.90
21271;DHT22;10795;50.796;3.860;2023-03-24T14:06:10;13.00;99.90
21271;DHT22;10795;50.796;3.860;2023-03-24T14:19:37;14.10;99.90
21271;DHT22;10795;50.796;3.860;2023-03-24T14:22:54;14.00;99.90
21271;DHT22;10795;50.796;3.860;2023-03-24T14:25:23;14.00;99.90
21271;DHT22;10795;50.796;3.860;2023-03-24T14:27:51;14.70;99.90
21271;DHT22;10795;50.796;3.860;2023-03-24T14:32:57;14.70;99.90
21271;DHT22;10795;50.796;3.860;2023-03-24T14:35:40;14.80;99.90
21271;DHT22;10795;50.796;3.860;2023-03-24T14:40:50;14.70;99.90
21271;DHT22;10795;50.796;3.860;2023-03-24T14:43:21;14.70;99.90
21271;DHT22;10795;50.796;3.860;2023-03-24T14:46:00;14.70;99.90
21271;DHT22;10795;50.796;3.860;2023-03-24T14:48:28;14.60;99.90
21271;DHT22;10795;50.796;3.860;2023-03-24T14:50:58;14.70;99.90
21271;DHT22;10795;50.796;3.860;2023-03-24T14:53:25;14.70;99.90
21271;DHT22;10795;50.796;3.860;2023-03-24T14:55:52;14.70;99.90
21271;DHT22;10795;50.796;3.860;2023-03-24T14:58:34;14.70;99.90
21271;DHT22;10795;50.796;3.860;2023-03-24T15:01:04;14.70;99.90
21271;DHT22;10795;50.796;3.860;2023-03-24T15:03:59;14.70;99.90
21271;DHT22;10795;50.796;3.860;2023-03-24T15:06:25;14.80;99.90
21271;DHT22;10795;50.796;3.860;2023-03-24T15:08:59;14.50;99.90
21271;DHT22;10795;50.796;3.860;2023-03-24T15:11:32;14.30;99.90
21271;DHT22;10795;50.796;3.860;2023-03-24T15:13:59;14.20;99.90
21271;DHT22;10795;50.796;3.860;2023-03-24T15:16:29;14.30;99.90
21271;DHT22;10795;50.796;3.860;2023-03-24T15:19:17;14.10;99.90
21271;DHT22;10795;50.796;3.860;2023-03-24T15:21:47;14.40;99.90
21271;DHT22;10795;50.796;3.860;2023-03-24T15:24:24;14.60;99.90
21271;DHT22;10795;50.796;3.860;2023-03-24T15:29:35;14.60;99.90
21271;DHT22;10795;50.796;3.860;2023-03-24T15:32:02;13.90;99.90
21271;DHT22;10795;50.796;3.860;2023-03-24T15:34:37;13.70;99.90
21271;DHT22;10795;50.796;3.860;2023-03-24T15:37:18;13.80;99.90
21271;DHT22;10795;50.796;3.860;2023-03-24T15:39:49;14.00;99.90
21271;DHT22;10795;50.796;3.860;2023-03-24T15:42:17;13.90;99.90
21271;DHT22;10795;50.796;3.860;2023-03-24T15:44:45;14.20;99.90
21271;DHT22;10795;50.796;3.860;2023-03-24T15:49:56;13.60;99.90
21271;DHT22;10795;50.796;3.860;2023-03-24T15:52:35;13.90;99.90
21271;DHT22;10795;50.796;3.860;2023-03-24T15:57:55;13.40;99.90
21271;DHT22;10795;50.796;3.860;2023-03-24T16:00:28;13.40;99.90
21271;DHT22;10795;50.796;3.860;2023-03-24T16:02:56;13.40;99.90
21271;DHT22;10795;50.796;3.860;2023-03-24T16:05:27;13.30;99.90
21271;DHT22;10795;50.796;3.860;2023-03-24T16:08:32;13.10;99.90
21271;DHT22;10795;50.796;3.860;2023-03-24T16:11:13;13.10;99.90
21271;DHT22;10795;50.796;3.860;2023-03-24T16:13:40;13.10;99.90
21271;DHT22;10795;50.796;3.860;2023-03-24T16:18:41;13.10;99.90
21271;DHT22;10795;50.796;3.860;2023-03-24T16:23:42;13.10;99.90
21271;DHT22;10795;50.796;3.860;2023-03-24T16:26:12;13.10;99.90
21271;DHT22;10795;50.796;3.860;2023-03-24T16:28:38;13.10;99.90
21271;DHT22;10795;50.796;3.860;2023-03-24T16:31:04;13.10;99.90
21271;DHT22;10795;50.796;3.860;2023-03-24T16:33:31;13.10;99.90
21271;DHT22;10795;50.796;3.860;2023-03-24T16:35:58;12.90;99.90
21271;DHT22;10795;50.796;3.860;2023-03-24T16:38:25;12.80;99.90
21271;DHT22;10795;50.796;3.860;2023-03-24T16:40:52;12.70;99.90
21271;DHT22;10795;50.796;3.860;2023-03-24T16:43:19;12.60;99.90
21271;DHT22;10795;50.796;3.860;2023-03-24T16:45:46;12.50;99.90
21271;DHT22;10795;50.796;3.860;2023-03-24T16:48:12;12.60;99.90
21271;DHT22;10795;50.796;3.860;2023-03-24T16:50:40;12.60;99.90
21271;DHT22;10795;50.796;3.860;2023-03-24T16:53:07;12.40;99.90
21271;DHT22;10795;50.796;3.860;2023-03-24T16:55:38;12.20;99.90
21271;DHT22;10795;50.796;3.860;2023-03-24T16:58:05;12.00;99.90
21271;DHT22;10795;50.796;3.860;2023-03-24T17:00:31;11.90;99.90
21271;DHT22;10795;50.796;3.860;2023-03-24T17:02:58;11.90;99.90
21271;DHT22;10795;50.796;3.860;2023-03-24T17:05:29;11.80;99.90
21271;DHT22;10795;50.796;3.860;2023-03-24T17:07:55;11.70;99.90
21271;DHT22;10795;50.796;3.860;2023-03-24T17:10:25;11.70;99.90
21271;DHT22;10795;50.796;3.860;2023-03-24T17:12:54;11.80;99.90
21271;DHT22;10795;50.796;3.860;2023-03-24T17:15:23;11.60;99.90
21271;DHT22;10795;50.796;3.860;2023-03-24T17:17:50;11.60;99.90
21271;DHT22;10795;50.796;3.860;2023-03-24T17:20:16;11.60;99.90
21271;DHT22;10795;50.796;3.860;2023-03-24T17:22:44;11.90;99.90
21271;DHT22;10795;50.796;3.860;2023-03-24T17:25:12;11.90;99.90
21271;DHT22;10795;50.796;3.860;2023-03-24T17:27:39;11.80;99.90
21271;DHT22;10795;50.796;3.860;2023-03-24T17:30:06;11.80;99.90
21271;DHT22;10795;50.796;3.860;2023-03-24T17:32:33;11.80;99.90
21271;DHT22;10795;50.796;3.860;2023-03-24T17:34:59;11.80;99.90
21271;DHT22;10795;50.796;3.860;2023-03-24T17:37:29;11.60;99.90
21271;DHT22;10795;50.796;3.860;2023-03-24T17:39:55;11.50;99.90
21271;DHT22;10795;50.796;3.860;2023-03-24T17:42:25;11.70;99.90
21271;DHT22;10795;50.796;3.860;2023-03-24T17:44:52;11.50;99.90
21271;DHT22;10795;50.796;3.860;2023-03-24T17:47:17;11.50;99.90
21271;DHT22;10795;50.796;3.860;2023-03-24T17:49:43;11.40;99.90
21271;DHT22;10795;50.796;3.860;2023-03-24T17:52:09;11.40;99.90
21271;DHT22;10795;50.796;3.860;2023-03-24T17:54:35;11.20;99.90
21271;DHT22;10795;50.796;3.860;2023-03-24T17:57:01;11.10;99.90
21271;DHT22;10795;50.796;3.860;2023-03-24T17:59:27;11.20;99.90
21271;DHT22;10795;50.796;3.860;2023-03-24T18:01:52;11.30;99.90
21271;DHT22;10795;50.796;3.860;2023-03-24T18:04:18;11.30;99.90
21271;DHT22;10795;50.796;3.860;2023-03-24T18:06:46;11.20;99.90
21271;DHT22;10795;50.796;3.860;2023-03-24T18:09:12;11.10;99.90
21271;DHT22;10795;50.796;3.860;2023-03-24T18:11:38;11.00;99.90
21271;DHT22;10795;50.796;3.860;2023-03-24T18:14:04;11.10;99.90
21271;DHT22;10795;50.796;3.860;2023-03-24T18:16:30;10.80;99.90
21271;DHT22;10795;50.796;3.860;2023-03-24T18:18:56;10.90;99.90
21271;DHT22;10795;50.796;3.860;2023-03-24T18:21:23;11.20;99.90
21271;DHT22;10795;50.796;3.860;2023-03-24T18:23:49;11.20;99.90
21271;DHT22;10795;50.796;3.860;2023-03-24T18:26:16;11.10;99.90
21271;DHT22;10795;50.796;3.860;2023-03-24T18:28:42;11.00;99.90
21271;DHT22;10795;50.796;3.860;2023-03-24T18:31:11;10.80;99.90
21271;DHT22;10795;50.796;3.860;2023-03-24T18:33:39;10.70;99.90
21271;DHT22;10795;50.796;3.860;2023-03-24T18:36:07;10.90;99.90
21271;DHT22;10795;50.796;3.860;2023-03-24T18:38:34;10.70;99.90
21271;DHT22;10795;50.796;3.860;2023-03-24T18:41:06;10.50;99.90
21271;DHT22;10795;50.796;3.860;2023-03-24T18:43:32;10.40;99.90
21271;DHT22;10795;50.796;3.860;2023-03-24T18:46:07;10.40;99.90
21271;DHT22;10795;50.796;3.860;2023-03-24T18:48:38;10.50;99.90
21271;DHT22;10795;50.796;3.860;2023-03-24T18:51:05;10.60;99.90
21271;DHT22;10795;50.796;3.860;2023-03-24T18:53:31;10.60;99.90
21271;DHT22;10795;50.796;3.860;2023-03-24T18:56:00;10.70;99.90
21271;DHT22;10795;50.796;3.860;2023-03-24T18:58:27;10.70;99.90
21271;DHT22;10795;50.796;3.860;2023-03-24T19:00:54;10.90;99.90
21271;DHT22;10795;50.796;3.860;2023-03-24T19:03:21;10.90;99.90
21271;DHT22;10795;50.796;3.860;2023-03-24T19:05:48;10.90;99.90
21271;DHT22;10795;50.796;3.860;2023-03-24T19:08:14;10.50;99.90
21271;DHT22;10795;50.796;3.860;2023-03-24T19:10:42;10.60;99.90
21271;DHT22;10795;50.796;3.860;2023-03-24T19:13:12;10.50;99.90
21271;DHT22;10795;50.796;3.860;2023-03-24T19:15:38;10.40;99.90
21271;DHT22;10795;50.796;3.860;2023-03-24T19:18:05;10.50;99.90
21271;DHT22;10795;50.796;3.860;2023-03-24T19:20:31;10.40;99.90
21271;DHT22;10795;50.796;3.860;2023-03-24T19:22:59;10.20;99.90
21271;DHT22;10795;50.796;3.860;2023-03-24T19:25:25;10.40;99.90
21271;DHT22;10795;50.796;3.860;2023-03-24T19:27:51;10.30;99.90
21271;DHT22;10795;50.796;3.860;2023-03-24T19:30:17;10.20;99.90
21271;DHT22;10795;50.796;3.860;2023-03-24T19:32:44;10.20;99.90
21271;DHT22;10795;50.796;3.860;2023-03-24T19:35:11;10.10;99.90
21271;DHT22;10795;50.796;3.860;2023-03-24T19:37:37;10.20;99.90
21271;DHT22;10795;50.796;3.860;2023-03-24T19:40:04;10.10;99.90
21271;DHT22;10795;50.796;3.860;2023-03-24T19:42:38;10.00;99.90
21271;DHT22;10795;50.796;3.860;2023-03-24T19:45:09;9.90;99.90
21271;DHT22;10795;50.796;3.860;2023-03-24T19:47:35;9.80;99.90
21271;DHT22;10795;50.796;3.860;2023-03-24T19:50:02;9.90;99.90
21271;DHT22;10795;50.796;3.860;2023-03-24T19:52:28;9.80;99.90
21271;DHT22;10795;50.796;3.860;2023-03-24T19:54:54;9.70;99.90
21271;DHT22;10795;50.796;3.860;2023-03-24T19:57:19;9.70;99.90
21271;DHT22;10795;50.796;3.860;2023-03-24T19:59:46;9.70;99.90
21271;DHT22;10795;50.796;3.860;2023-03-24T20:02:16;9.50;99.90
21271;DHT22;10795;50.796;3.860;2023-03-24T20:04:43;9.50;99.90
21271;DHT22;10795;50.796;3.860;2023-03-24T20:07:10;9.50;99.90
21271;DHT22;10795;50.796;3.860;2023-03-24T20:09:36;9.50;99.90
21271;DHT22;10795;50.796;3.860;2023-03-24T20:12:02;9.60;99.90
21271;DHT22;10795;50.796;3.860;2023-03-24T20:14:28;9.50;99.90
21271;DHT22;10795;50.796;3.860;2023-03-24T20:16:59;9.50;99.90
21271;DHT22;10795;50.796;3.860;2023-03-24T20:19:26;9.50;99.90
21271;DHT22;10795;50.796;3.860;2023-03-24T20:21:52;9.40;99.90
21271;DHT22;10795;50.796;3.860;2023-03-24T20:24:18;9.40;99.90
21271;DHT22;10795;50.796;3.860;2023-03-24T20:26:44;9.50;99.90
21271;DHT22;10795;50.796;3.860;2023-03-24T20:29:10;9.80;99.90
21271;DHT22;10795;50.796;3.860;2023-03-24T20:31:35;9.90;99.90
21271;DHT22;10795;50.796;3.860;2023-03-24T20:34:05;9.80;99.90
21271;DHT22;10795;50.796;3.860;2023-03-24T20:36:31;10.00;99.90
21271;DHT22;10795;50.796;3.860;2023-03-24T20:38:57;10.10;99.90
21271;DHT22;10795;50.796;3.860;2023-03-24T20:41:25;9.90;99.90
21271;DHT22;10795;50.796;3.860;2023-03-24T20:43:51;9.70;99.90
21271;DHT22;10795;50.796;3.860;2023-03-24T20:46:17;9.60;99.90
21271;DHT22;10795;50.796;3.860;2023-03-24T20:48:43;9.80;99.90
21271;DHT22;10795;50.796;3.860;2023-03-24T20:51:10;9.60;99.90
21271;DHT22;10795;50.796;3.860;2023-03-24T20:53:36;9.60;99.90
21271;DHT22;10795;50.796;3.860;2023-03-24T20:56:05;9.60;99.90
21271;DHT22;10795;50.796;3.860;2023-03-24T20:58:33;9.60;99.90
21271;DHT22;10795;50.796;3.860;2023-03-24T21:00:59;9.70;99.90
21271;DHT22;10795;50.796;3.860;2023-03-24T21:03:30;9.80;99.90
21271;DHT22;10795;50.796;3.860;2023-03-24T21:05:56;9.80;99.90
21271;DHT22;10795;50.796;3.860;2023-03-24T21:08:22;9.80;99.90
21271;DHT22;10795;50.796;3.860;2023-03-24T21:10:48;9.80;99.90
21271;DHT22;10795;50.796;3.860;2023-03-24T21:13:13;9.70;99.90
21271;DHT22;10795;50.796;3.860;2023-03-24T21:15:43;9.60;99.90
21271;DHT22;10795;50.796;3.860;2023-03-24T21:18:09;9.60;99.90
21271;DHT22;10795;50.796;3.860;2023-03-24T21:20:35;9.60;99.90
21271;DHT22;10795;50.796;3.860;2023-03-24T21:23:02;9.60;99.90
21271;DHT22;10795;50.796;3.860;2023-03-24T21:25:32;9.50;99.90
21271;DHT22;10795;50.796;3.860;2023-03-24T21:27:58;9.40;99.90
21271;DHT22;10795;50.796;3.860;2023-03-24T21:30:25;9.50;99.90
21271;DHT22;10795;50.796;3.860;2023-03-24T21:32:54;9.40;99.90
21271;DHT22;10795;50.796;3.860;2023-03-24T21:35:20;9.50;99.90
21271;DHT22;10795;50.796;3.860;2023-03-24T21:37:47;9.40;99.90
21271;DHT22;10795;50.796;3.860;2023-03-24T21:40:18;9.30;99.90
21271;DHT22;10795;50.796;3.860;2023-03-24T21:42:44;9.30;99.90
21271;DHT22;10795;50.796;3.860;2023-03-24T21:45:13;9.40;99.90
21271;DHT22;10795;50.796;3.860;2023-03-24T21:47:44;9.40;99.90
21271;DHT22;10795;50.796;3.860;2023-03-24T21:50:16;9.40;99.90
21271;DHT22;10795;50.796;3.860;2023-03-24T21:52:44;9.40;99.90
21271;DHT22;10795;50.796;3.860;2023-03-24T21:55:13;9.30;99.90
21271;DHT22;10795;50.796;3.860;2023-03-24T21:57:41;9.40;99.90
21271;DHT22;10795;50.796;3.860;2023-03-24T22:00:16;9.40;99.90
21271;DHT22;10795;50.796;3.860;2023-03-24T22:02:47;9.40;99.90
21271;DHT22;10795;50.796;3.860;2023-03-24T22:05:24;9.40;99.90
21271;DHT22;10795;50.796;3.860;2023-03-24T22:07:50;9.40;99.90
21271;DHT22;10795;50.796;3.860;2023-03-24T22:10:18;9.40;99.90
21271;DHT22;10795;50.796;3.860;2023-03-24T22:12:50;9.50;99.90
21271;DHT22;10795;50.796;3.860;2023-03-24T22:15:17;9.50;99.90
21271;DHT22;10795;50.796;3.860;2023-03-24T22:17:43;9.40;99.90
21271;DHT22;10795;50.796;3.860;2023-03-24T22:20:10;9.40;99.90
21271;DHT22;10795;50.796;3.860;2023-03-24T22:22:38;9.40;99.90
21271;DHT22;10795;50.796;3.860;2023-03-24T22:25:05;9.40;99.90
21271;DHT22;10795;50.796;3.860;2023-03-24T22:27:33;9.40;99.90
21271;DHT22;10795;50.796;3.860;2023-03-24T22:29:59;9.40;99.90
21271;DHT22;10795;50.796;3.860;2023-03-24T22:32:25;9.30;99.90
21271;DHT22;10795;50.796;3.860;2023-03-24T22:34:51;9.30;99.90
21271;DHT22;10795;50.796;3.860;2023-03-24T22:37:18;9.30;99.90
21271;DHT22;10795;50.796;3.860;2023-03-24T22:39:43;9.40;99.90
21271;DHT22;10795;50.796;3.860;2023-03-24T22:42:10;9.40;99.90
21271;DHT22;10795;50.796;3.860;2023-03-24T22:44:36;9.40;99.90
21271;DHT22;10795;50.796;3.860;2023-03-24T22:47:02;9.50;99.90
21271;DHT22;10795;50.796;3.860;2023-03-24T22:49:29;9.40;99.90
21271;DHT22;10795;50.796;3.860;2023-03-24T22:51:55;9.50;99.90
21271;DHT22;10795;50.796;3.860;2023-03-24T22:54:21;9.50;99.90
21271;DHT22;10795;50.796;3.860;2023-03-24T22:56:48;9.50;99.90
21271;DHT22;10795;50.796;3.860;2023-03-24T22:59:13;9.50;99.90
21271;DHT22;10795;50.796;3.860;2023-03-24T23:01:39;9.60;99.90
21271;DHT22;10795;50.796;3.860;2023-03-24T23:04:06;9.60;99.90
21271;DHT22;10795;50.796;3.860;2023-03-24T23:06:32;9.60;99.90
21271;DHT22;10795;50.796;3.860;2023-03-24T23:08:57;9.50;99.90
21271;DHT22;10795;50.796;3.860;2023-03-24T23:11:26;9.50;99.90
21271;DHT22;10795;50.796;3.860;2023-03-24T23:13:52;9.40;99.90
21271;DHT22;10795;50.796;3.860;2023-03-24T23:16:19;9.30;99.90